Weather Data

Pearl Creek Farm: 8878 N Farm Road 75, Walnut Grove MO 65770

<== Previous Day (Thursday 17 Jan 2013) | Next Day (Saturday 19 Jan 2013) ==>

Summary Precipitation Data For Friday 18 January 2013

ElementValueUnits
Precipitation0"
New Snow Depth0"
New Snow Water Equivalent0"
Total Snow DepthT
Total Snow Water Equivalent*0"
NotesStill some ice and snow in shady places. Warmer today and tomorrow so I expect most will be melted by the end of Saturday.
SourcePearl Creek Farm

* Total Snow Water Equivalent is not measured every day.

Summary Temperature Data For Friday 18 January 2013

ElementValueUnits
High Temperature55 oF
Low Temperature24 oF
Average Temperature38 oF
High Humidity91 %
Low Humidity43 %
Average Humidity70 %
SourcePearl Creek Farm

Detail Temperature Data For Friday 18 January 2013

Date / TimeTemp (F)RH (%)Dew Pt (F)Report Date / TimeSource
2013-01-18 00:00:00 24 88 21.0 2013-01-27 10:51:56 Pearl Creek Farm
2013-01-18 00:30:00 24 89 21.1 2013-01-27 10:51:56 Pearl Creek Farm
2013-01-18 01:00:00 24 89 21.2 2013-01-27 10:51:56 Pearl Creek Farm
2013-01-18 01:30:00 24 89 21.2 2013-01-27 10:51:56 Pearl Creek Farm
2013-01-18 02:00:00 24 89 21.2 2013-01-27 10:51:56 Pearl Creek Farm
2013-01-18 02:30:00 24 89 21.2 2013-01-27 10:51:56 Pearl Creek Farm
2013-01-18 03:00:00 24 90 21.5 2013-01-27 10:51:56 Pearl Creek Farm
2013-01-18 03:30:00 24 91 21.6 2013-01-27 10:51:56 Pearl Creek Farm
2013-01-18 04:00:00 24 90 21.5 2013-01-27 10:51:56 Pearl Creek Farm
2013-01-18 04:30:00 25 90 22.5 2013-01-27 10:51:56 Pearl Creek Farm
2013-01-18 05:00:00 26 90 23.3 2013-01-27 10:51:56 Pearl Creek Farm
2013-01-18 05:30:00 27 89 24.2 2013-01-27 10:51:56 Pearl Creek Farm
2013-01-18 06:00:00 28 88 24.9 2013-01-27 10:51:56 Pearl Creek Farm
2013-01-18 06:30:00 28 88 24.8 2013-01-27 10:51:56 Pearl Creek Farm
2013-01-18 07:00:00 28 87 24.6 2013-01-27 10:51:56 Pearl Creek Farm
2013-01-18 07:30:00 27 87 23.7 2013-01-27 10:51:56 Pearl Creek Farm
2013-01-18 08:00:00 28 88 24.9 2013-01-27 10:51:56 Pearl Creek Farm
2013-01-18 08:30:00 30 88 26.9 2013-01-27 10:51:56 Pearl Creek Farm
2013-01-18 09:00:00 32 88 28.7 2013-01-27 10:51:56 Pearl Creek Farm
2013-01-18 09:30:00 35 85 30.8 2013-01-27 10:51:56 Pearl Creek Farm
2013-01-18 10:00:00 38 79 31.9 2013-01-27 10:51:56 Pearl Creek Farm
2013-01-18 10:30:00 40 76 32.9 2013-01-27 10:51:56 Pearl Creek Farm
2013-01-18 11:00:00 42 73 34.0 2013-01-27 10:51:56 Pearl Creek Farm
2013-01-18 11:30:00 44 71 35.0 2013-01-27 10:51:56 Pearl Creek Farm
2013-01-18 12:00:00 46 69 36.2 2013-01-27 10:51:56 Pearl Creek Farm
2013-01-18 12:30:00 49 61 36.0 2013-01-27 10:51:56 Pearl Creek Farm
2013-01-18 13:00:00 52 53 35.4 2013-01-27 10:51:56 Pearl Creek Farm
2013-01-18 13:30:00 53 52 35.9 2013-01-27 10:51:56 Pearl Creek Farm
2013-01-18 14:00:00 54 49 35.3 2013-01-27 10:51:56 Pearl Creek Farm
2013-01-18 14:30:00 55 48 35.4 2013-01-27 10:51:56 Pearl Creek Farm
2013-01-18 15:00:00 55 46 34.6 2013-01-27 10:51:56 Pearl Creek Farm
2013-01-18 15:30:00 55 44 33.5 2013-01-27 10:51:56 Pearl Creek Farm
2013-01-18 16:00:00 55 43 33.0 2013-01-27 10:51:56 Pearl Creek Farm
2013-01-18 16:30:00 53 44 31.4 2013-01-27 10:51:56 Pearl Creek Farm
2013-01-18 17:00:00 52 44 30.5 2013-01-27 10:51:56 Pearl Creek Farm
2013-01-18 17:30:00 50 47 30.6 2013-01-27 10:51:56 Pearl Creek Farm
2013-01-18 18:00:00 47 51 29.6 2013-01-27 10:51:56 Pearl Creek Farm
2013-01-18 18:30:00 47 52 30.1 2013-01-27 10:51:56 Pearl Creek Farm
2013-01-18 19:00:00 46 51 28.9 2013-01-27 10:51:56 Pearl Creek Farm
2013-01-18 19:30:00 45 53 28.7 2013-01-27 10:51:56 Pearl Creek Farm
2013-01-18 20:00:00 44 55 28.9 2013-01-27 10:51:56 Pearl Creek Farm
2013-01-18 20:30:00 43 57 28.6 2013-01-27 10:51:56 Pearl Creek Farm
2013-01-18 21:00:00 42 60 29.0 2013-01-27 10:51:56 Pearl Creek Farm
2013-01-18 21:30:00 42 61 29.6 2013-01-27 10:51:56 Pearl Creek Farm
2013-01-18 22:00:00 41 63 29.4 2013-01-27 10:51:56 Pearl Creek Farm
2013-01-18 22:30:00 40 65 29.2 2013-01-27 10:51:56 Pearl Creek Farm
2013-01-18 23:00:00 39 67 29.0 2013-01-27 10:51:56 Pearl Creek Farm
2013-01-18 23:30:00 36 71 27.5 2013-01-27 10:51:56 Pearl Creek Farm

A total of 48 rows are displayed.